Have a Safe July 4th! 

Flight Track Log - Related Links

Times and Time Zones

All times are in EST time to prevent confusion due to time zone crossing. See the N421VA flight status page for this flight to view local times or setup timezone preferences in your user account.

Time Position Orientation Groundspeed Altitude Reporting Facility
EST Latitude Longitude Course Direction KTS MPH feet Rate Location/Type
Sun 09:00:47 AM 39.6069 -79.9839 250° West 99 114 4,100  Level Cleveland Center
Sun 09:01:49 AM 39.5994 -80.0167 253° West 98 113 4,800 683 Climbing Cleveland Center
Sun 09:02:50 AM 39.5889 -80.0464 245° Southwest 95 109 5,500 683 Climbing Cleveland Center
Sun 09:03:52 AM 39.5769 -80.0778 244° Southwest 95 109 6,200 634 Climbing Cleveland Center
Sun 09:04:00 AM 39.5733 -80.1880 253° West  Level Estimated
Sun 09:04:53 AM 39.5667 -80.1119 249° West 98 113 6,800  Level Cleveland Center
Sun 09:05:00 AM 39.5583 -80.2416 250° West  Level FlightAware Approximate
Sun 09:05:26 AM 39.5586 -80.1378 248° West 111 128 7,200  Level Indianapolis Center
Sun 09:06:27 AM 39.5508 -80.1781 256° West 113 130 7,900 393 Climbing Indianapolis Center
Sun 09:07:28 AM 39.5400 -80.2194 251° West 117 135 8,000 49 Climbing Indianapolis Center
Sun 09:08:29 AM 39.5311 -80.2694 257° West 129 148 8,000  Level Indianapolis Center
Sun 09:09:30 AM 39.5208 -80.3186 255° West 136 157 8,000  Level Indianapolis Center
Sun 09:10:32 AM 39.5086 -80.3683 252° West 141 162 8,000  Level Indianapolis Center
Sun 09:11:33 AM 39.4953 -80.4164 250° West 143 165 8,000  Level Indianapolis Center
Sun 09:12:34 AM 39.4806 -80.4644 248° West 143 165 8,000  Level Indianapolis Center
Sun 09:13:35 AM 39.4681 -80.5147 252° West 144 166 8,000  Level Indianapolis Center
Sun 09:14:36 AM 39.4558 -80.5644 252° West 145 167 8,000  Level Indianapolis Center
Sun 09:15:38 AM 39.4428 -80.6147 251° West 146 168 8,000  Level Indianapolis Center
Sun 09:16:39 AM 39.4267 -80.6761 251° West 148 170 8,000  Level Indianapolis Center
Sun 09:17:40 AM 39.4128 -80.7286 251° West 151 174 8,000  Level Indianapolis Center
Sun 09:18:41 AM 39.3986 -80.7817 251° West 154 177 8,000  Level Indianapolis Center
Sun 09:19:43 AM 39.3844 -80.8356 251° West 156 180 8,000  Level Indianapolis Center
Sun 09:20:44 AM 39.3714 -80.8889 252° West 156 180 8,000  Level Indianapolis Center
Sun 09:21:45 AM 39.3581 -80.9422 252° West 156 180 8,000  Level Indianapolis Center
Sun 09:22:46 AM 39.3436 -80.9933 250° West 154 177 8,000  Level Indianapolis Center
Sun 09:23:48 AM 39.3292 -81.0458 250° West 154 177 8,000  Level Indianapolis Center
Sun 09:24:49 AM 39.3150 -81.0997 251° West 157 181 8,000  Level Indianapolis Center
Sun 09:25:50 AM 39.3008 -81.1525 251° West 156 180 8,000  Level Indianapolis Center
Sun 09:26:52 AM 39.2878 -81.2047 252° West 154 177 8,000  Level Indianapolis Center
Sun 09:27:53 AM 39.2742 -81.2561 251° West 152 175 8,000  Level Indianapolis Center
Sun 09:28:54 AM 39.2578 -81.3189 251° West 153 176 8,000  Level Indianapolis Center
Sun 09:29:56 AM 39.2450 -81.3711 252° West 154 177 8,000  Level Indianapolis Center
Sun 09:30:57 AM 39.2333 -81.4256 255° West 156 180 8,000  Level Indianapolis Center
Sun 09:31:58 AM 39.2203 -81.4758 251° West 151 174 8,000  Level Indianapolis Center
Sun 09:33:00 AM 39.2072 -81.5261 251° West 149 171 8,000  Level Indianapolis Center
Sun 09:34:01 AM 39.1911 -81.5764 248° West 150 173 8,000  Level Indianapolis Center
Sun 09:35:02 AM 39.1769 -81.6283 251° West 152 175 8,000  Level Indianapolis Center
Sun 09:36:04 AM 39.1628 -81.6786 250° West 151 174 8,000  Level Indianapolis Center
Sun 09:37:05 AM 39.1483 -81.7283 249° West 148 170 8,000  Level Indianapolis Center
Sun 09:38:06 AM 39.1322 -81.7886 251° West 148 170 8,000  Level Indianapolis Center
Sun 09:39:08 AM 39.1181 -81.8406 251° West 153 176 8,000 -244 Level Indianapolis Center
Sun 09:40:09 AM 39.1028 -81.8964 251° West 163 188 7,500 -393 Descending Indianapolis Center
Sun 09:41:10 AM 39.0875 -81.9553 252° West 171 197 7,200 -439 Descending Indianapolis Center
Sun 09:42:12 AM 39.0722 -82.0136 251° West 172 198 6,600 -488 Descending Indianapolis Center
Sun 09:43:13 AM 39.0589 -82.0706 253° West 169 194 6,200 -439 Descending Indianapolis Center
Sun 09:44:15 AM 39.0467 -82.1225 253° West 158 182 5,700 -488 Descending Indianapolis Center
Sun 09:45:16 AM 39.0339 -82.1731 252° West 150 173 5,200 -590 Descending Indianapolis Center
Sun 09:46:17 AM 39.0192 -82.2228 249° West 149 171 4,500 -585 Descending Indianapolis Center
Sun 09:47:19 AM 39.0033 -82.2733 248° West 151 174 4,000 -244 Descending Indianapolis Center
Sun 09:48:20 AM 38.9867 -82.3303 249° West 145 167 4,000  Level Indianapolis Center
Sun 09:49:21 AM 38.9867 -82.3811 270° West 143 165 4,000  Level Indianapolis Center
Sun 09:50:23 AM 38.9822 -82.4297 263° West 138 159 4,000 -244 Level Indianapolis Center
Sun 09:51:24 AM 38.9761 -82.4825 262° West 144 166 3,500 -341 Descending Indianapolis Center
Sun 09:52:26 AM 38.9722 -82.5414 265° West 158 182 3,300 -244 Descending Indianapolis Center
Sun 09:53:27 AM 38.9672 -82.6003 264° West 164 189 3,000 -146 Descending Indianapolis Center
Sun 09:54:29 AM 38.9617 -82.6608 263° West 168 193 3,000  Level Indianapolis Center
Sun 09:55:30 AM 38.9569 -82.7233 264° West 166 191 3,000  Level Indianapolis Center

Login

Don't have an account? Register now (free) for customized features, flight alerts, and more!